Time;durP1;ratioP1;P1;durP2;ratioP2;P2;SDS_P1;SDS_P2;PMS_P1;PMS_P2;Temp;Humidity;BMP_temperature;BMP_pressure;BME280_temperature;BME280_humidity;BME280_pressure;Samples;Min_cycle;Max_cycle;Signal;HPM_P1;HPM_P2
2023/04/04 00:01:44;;;;;;;;;;;;;;;18.42;22.57;98710.34;5053655;28;19975;-83
2023/04/04 00:04:11;;;;;;;;;;;;;;;18.03;22.73;98722.16;5052645;28;20615;-83
2023/04/04 00:06:43;;;;;;;;;;;;;;;16.63;24.78;98719.59;5052218;28;19912;-83
2023/04/04 00:09:09;;;;;;;;;;;;;;;17.07;23.47;98711.63;5053853;28;19943;-83
2023/04/04 00:11:35;;;;;;;;;;;;;;;17.08;22.73;98716.78;5062744;28;20392;-83
2023/04/04 00:14:01;;;;;;;;;;;;;;;17.72;23.30;98709.47;5052720;28;19925;-83
2023/04/04 00:16:27;;;;;;;;;;;;;;;18.13;22.26;98715.97;5054533;28;20436;-83
2023/04/04 00:18:53;;;;;;;;;;;;;;;18.31;22.01;98709.44;5051360;28;19928;-83
2023/04/04 00:21:19;;;;;;;;;;;;;;;18.89;21.46;98711.63;5052492;28;20300;-83
2023/04/04 00:23:45;;;;;;;;;;;;;;;19.07;21.84;98713.38;5052049;28;20333;-83
2023/04/04 00:26:11;;;;;;;;;;;;;;;19.09;21.97;98718.56;5050247;28;19920;-83
2023/04/04 00:28:37;;;;;;;;;;;;;;;19.49;21.50;98714.88;5053867;28;19921;-83
2023/04/04 00:31:03;;;;;;;;;;;;;;;19.28;22.03;98718.28;5052351;28;20289;-83
2023/04/04 00:33:29;;;;;;;;;;;;;;;18.80;22.42;98716.69;5053040;28;19967;-83
2023/04/04 00:35:55;;;;;;;;;;;;;;;17.06;24.64;98713.59;5060922;28;19921;-83
2023/04/04 00:38:21;;;;;;;;;;;;;;;17.10;23.53;98717.25;5054219;28;19916;-83
2023/04/04 00:40:48;;;;;;;;;;;;;;;16.38;24.07;98721.09;5052952;28;20440;-83
2023/04/04 00:43:15;;;;;;;;;;;;;;;15.10;25.65;98725.78;5052842;28;19929;-83
2023/04/04 00:45:42;;;;;;;;;;;;;;;14.27;27.84;98728.72;5051808;28;19943;-83
2023/04/04 00:48:08;;;;;;;;;;;;;;;13.71;29.25;98736.19;5046972;28;19952;-83
2023/04/04 00:50:34;;;;;;;;;;;;;;;14.64;26.23;98725.78;5057010;28;20000;-83
2023/04/04 00:53:00;;;;;;;;;;;;;;;14.63;27.70;98725.00;5052649;28;20435;-83
2023/04/04 00:55:26;;;;;;;;;;;;;;;12.67;29.98;98728.84;5046139;28;19921;-83
2023/04/04 00:57:53;;;;;;;;;;;;;;;13.28;30.22;98730.50;5044192;28;19921;-83
2023/04/04 01:00:19;;;;;;;;;;;;;;;14.80;26.39;98726.56;5053533;28;19932;-83
2023/04/04 01:02:45;;;;;;;;;;;;;;;12.78;28.85;98727.25;5058929;28;19924;-83
2023/04/04 01:05:11;;;;;;;;;;;;;;;12.75;30.91;98727.94;5049559;28;20014;-83
2023/04/04 01:07:38;;;;;;;;;;;;;;;15.30;25.61;98729.41;5047949;28;19921;-83
2023/04/04 01:10:05;;;;;;;;;;;;;;;15.02;25.37;98731.50;5050775;28;20070;-83
2023/04/04 01:12:31;;;;;;;;;;;;;;;15.65;25.11;98737.75;5050613;28;19956;-83
2023/04/04 01:14:57;;;;;;;;;;;;;;;14.53;26.25;98731.84;5054070;28;19927;-83
2023/04/04 01:17:23;;;;;;;;;;;;;;;15.98;24.99;98737.28;5048696;28;19924;-83
2023/04/04 01:20:06;;;;;;;;;;;;;;;15.95;24.96;98726.91;5049804;28;20019;-83
2023/04/04 01:22:33;;;;;;;;;;;;;;;16.51;24.37;98734.44;5049601;28;19921;-83
2023/04/04 01:25:00;;;;;;;;;;;;;;;17.04;24.24;98734.56;5050252;28;19929;-83
2023/04/04 01:27:26;;;;;;;;;;;;;;;17.69;23.07;98729.66;5047175;28;20299;-83
2023/04/04 01:29:52;;;;;;;;;;;;;;;17.98;22.53;98728.84;5044869;28;19928;-83
2023/04/04 01:32:19;;;;;;;;;;;;;;;17.07;22.91;98726.31;5049116;28;20339;-83
2023/04/04 01:34:58;;;;;;;;;;;;;;;14.82;28.25;98743.63;5046881;28;19921;-83
2023/04/04 01:37:35;;;;;;;;;;;;;;;12.22;32.94;98745.38;5050993;28;19983;-83
2023/04/04 01:40:12;;;;;;;;;;;;;;;14.39;27.32;98742.50;5047272;28;20103;-83
2023/04/04 01:42:38;;;;;;;;;;;;;;;14.96;25.97;98744.00;5047787;28;19950;-83
2023/04/04 01:45:06;;;;;;;;;;;;;;;16.67;24.96;98734.31;5048709;28;19944;-84
2023/04/04 01:47:39;;;;;;;;;;;;;;;17.27;24.87;98733.38;5049519;28;20307;-84
2023/04/04 01:50:06;;;;;;;;;;;;;;;16.57;24.07;98740.47;5051615;28;19936;-84
2023/04/04 01:52:32;;;;;;;;;;;;;;;17.25;23.06;98732.13;5047872;28;20033;-83
2023/04/04 01:54:58;;;;;;;;;;;;;;;16.52;25.34;98738.78;5051069;28;19975;-84
2023/04/04 01:57:24;;;;;;;;;;;;;;;17.12;23.35;98739.88;5053074;28;20056;-84
2023/04/04 01:59:50;;;;;;;;;;;;;;;16.92;23.53;98726.44;5050307;28;20462;-84
2023/04/04 02:02:16;;;;;;;;;;;;;;;15.84;24.33;98741.38;5051695;28;19959;-84
2023/04/04 02:04:42;;;;;;;;;;;;;;;14.58;26.29;98739.06;5059653;28;20075;-84
2023/04/04 02:07:08;;;;;;;;;;;;;;;13.11;29.74;98739.84;5051898;28;20376;-85
2023/04/04 02:09:34;;;;;;;;;;;;;;;14.16;27.08;98743.38;5052160;28;20135;-84
2023/04/04 02:12:00;;;;;;;;;;;;;;;13.30;28.50;98741.19;5057549;28;19970;-84
2023/04/04 02:14:26;;;;;;;;;;;;;;;14.43;26.80;98735.09;5053241;28;19921;-84
2023/04/04 02:16:52;;;;;;;;;;;;;;;14.90;26.08;98734.34;5071450;28;19920;-84
2023/04/04 02:19:18;;;;;;;;;;;;;;;13.30;30.53;98744.75;5061232;28;19967;-84
2023/04/04 02:21:44;;;;;;;;;;;;;;;14.18;27.67;98744.66;5054988;28;19924;-84
2023/04/04 02:24:11;;;;;;;;;;;;;;;12.76;30.51;98740.56;5054942;28;19924;-84
2023/04/04 02:26:37;;;;;;;;;;;;;;;13.70;28.29;98742.03;5055405;28;19956;-84
2023/04/04 02:29:03;;;;;;;;;;;;;;;14.17;27.61;98740.25;5055599;28;19920;-84
2023/04/04 02:31:30;;;;;;;;;;;;;;;14.40;29.24;98741.34;5056152;28;19974;-84
2023/04/04 02:33:56;;;;;;;;;;;;;;;15.34;25.90;98735.81;5065132;28;19916;-84
2023/04/04 02:36:22;;;;;;;;;;;;;;;14.28;28.96;98746.09;5056470;28;19970;-84
2023/04/04 02:38:48;;;;;;;;;;;;;;;13.09;29.80;98744.06;5066070;28;19921;-84
2023/04/04 02:41:14;;;;;;;;;;;;;;;13.80;30.12;98742.34;5052371;28;21200;-84
2023/04/04 02:43:40;;;;;;;;;;;;;;;12.86;29.92;98737.38;5055175;28;19925;-84
2023/04/04 02:46:06;;;;;;;;;;;;;;;12.56;31.19;98742.25;5055837;28;19920;-84
2023/04/04 02:48:32;;;;;;;;;;;;;;;12.62;32.35;98740.09;5054707;28;19974;-85
2023/04/04 02:50:58;;;;;;;;;;;;;;;13.03;29.72;98740.69;5055049;28;19920;-84
2023/04/04 02:53:25;;;;;;;;;;;;;;;13.31;28.90;98738.06;5052735;28;20318;-84
2023/04/04 02:55:51;;;;;;;;;;;;;;;13.70;27.82;98737.31;5052444;28;19924;-85
2023/04/04 02:58:17;;;;;;;;;;;;;;;13.95;28.13;98729.78;5035176;28;20287;-84
2023/04/04 03:00:43;;;;;;;;;;;;;;;14.76;26.87;98734.78;5057861;28;19932;-84
2023/04/04 03:03:09;;;;;;;;;;;;;;;12.60;30.98;98734.94;5051525;28;20367;-84
2023/04/04 03:05:35;;;;;;;;;;;;;;;14.05;28.45;98734.00;5054105;28;19928;-84
2023/04/04 03:08:01;;;;;;;;;;;;;;;15.35;26.06;98731.91;5055572;28;19921;-85
2023/04/04 03:10:31;;;;;;;;;;;;;;;16.02;25.11;98732.59;5056280;28;19920;-85
2023/04/04 03:12:57;;;;;;;;;;;;;;;15.00;27.64;98729.09;5053353;28;19932;-85
2023/04/04 03:15:24;;;;;;;;;;;;;;;13.93;29.44;98737.63;5050430;28;20368;-85
2023/04/04 03:17:51;;;;;;;;;;;;;;;14.54;27.03;98738.94;5053857;28;19924;-85
2023/04/04 03:20:17;;;;;;;;;;;;;;;14.51;27.11;98728.63;5056767;28;19921;-85
2023/04/04 03:22:43;;;;;;;;;;;;;;;13.79;28.18;98732.47;5065819;28;19974;-84
2023/04/04 03:25:10;;;;;;;;;;;;;;;14.56;27.07;98718.47;5053189;28;19924;-85
2023/04/04 03:27:36;;;;;;;;;;;;;;;13.64;28.46;98726.88;5051761;28;19921;-85
2023/04/04 03:30:02;;;;;;;;;;;;;;;14.51;26.88;98722.28;5053360;28;19921;-85
2023/04/04 03:32:28;;;;;;;;;;;;;;;11.32;34.29;98734.09;5051275;28;19929;-84
2023/04/04 03:34:54;;;;;;;;;;;;;;;13.31;29.29;98717.97;5055365;28;19920;-85
2023/04/04 03:37:21;;;;;;;;;;;;;;;15.50;26.20;98716.44;5049155;28;20416;-85
2023/04/04 03:39:47;;;;;;;;;;;;;;;13.86;28.61;98718.09;5054866;28;19974;-84
2023/04/04 03:42:13;;;;;;;;;;;;;;;15.22;26.29;98706.31;5061872;28;19924;-84
2023/04/04 03:44:40;;;;;;;;;;;;;;;15.88;25.08;98713.72;5056218;28;20015;-84
2023/04/04 03:47:06;;;;;;;;;;;;;;;15.88;26.04;98706.22;5033086;28;19923;-84
2023/04/04 03:49:35;;;;;;;;;;;;;;;14.02;29.11;98713.41;5053852;28;19920;-84
2023/04/04 03:52:02;;;;;;;;;;;;;;;13.81;29.53;98705.34;5056769;28;19970;-84
2023/04/04 03:54:28;;;;;;;;;;;;;;;15.27;25.51;98696.94;5054277;28;19935;-84
2023/04/04 03:56:55;;;;;;;;;;;;;;;14.67;26.70;98701.00;5048724;28;20431;-84
2023/04/04 03:59:22;;;;;;;;;;;;;;;14.64;27.29;98703.66;5030224;28;19921;-84
2023/04/04 04:01:48;;;;;;;;;;;;;;;12.70;30.70;98698.66;5047727;28;19920;-84
2023/04/04 04:04:14;;;;;;;;;;;;;;;13.69;28.07;98697.09;5052010;28;19928;-84
2023/04/04 04:06:40;;;;;;;;;;;;;;;12.65;31.24;98696.13;5051440;28;19929;-84
2023/04/04 04:09:06;;;;;;;;;;;;;;;14.78;26.63;98693.78;5052619;28;19920;-84
2023/04/04 04:11:33;;;;;;;;;;;;;;;12.63;32.61;98698.41;5050487;28;19928;-85
2023/04/04 04:13:59;;;;;;;;;;;;;;;12.44;31.54;98707.22;5058540;28;19924;-84
2023/04/04 04:16:26;;;;;;;;;;;;;;;12.94;30.59;98698.69;5051117;28;19924;-85
2023/04/04 04:18:52;;;;;;;;;;;;;;;13.51;29.80;98706.00;5048314;28;19975;-84
2023/04/04 04:21:18;;;;;;;;;;;;;;;14.74;27.15;98698.41;5049241;28;20003;-82
2023/04/04 04:23:45;;;;;;;;;;;;;;;15.28;26.08;98697.75;5045035;28;20028;-83
2023/04/04 04:26:11;;;;;;;;;;;;;;;13.34;28.57;98695.22;5047384;28;19925;-84
2023/04/04 04:28:37;;;;;;;;;;;;;;;14.28;27.88;98693.63;5051224;28;19932;-83
2023/04/04 04:31:05;;;;;;;;;;;;;;;14.71;28.38;98692.78;5049215;28;19975;-83
2023/04/04 04:33:31;;;;;;;;;;;;;;;14.13;27.83;98699.91;5048990;28;19920;-83
2023/04/04 04:36:00;;;;;;;;;;;;;;;14.27;27.88;98694.78;5041548;28;19924;-83
2023/04/04 04:38:27;;;;;;;;;;;;;;;12.13;33.19;98697.88;5050635;28;19956;-83
2023/04/04 04:40:53;;;;;;;;;;;;;;;14.35;27.04;98697.38;5050571;28;19920;-84
2023/04/04 04:43:19;;;;;;;;;;;;;;;12.95;31.81;98705.00;5056124;28;19970;-83
2023/04/04 04:45:46;;;;;;;;;;;;;;;11.50;33.71;98699.84;5053176;28;19921;-83
2023/04/04 04:48:12;;;;;;;;;;;;;;;11.90;33.93;98705.69;5054547;28;19928;-83
2023/04/04 04:50:38;;;;;;;;;;;;;;;11.72;34.86;98702.28;5046372;28;20379;-83
2023/04/04 04:53:04;;;;;;;;;;;;;;;11.46;34.71;98700.88;5045511;28;20284;-82
2023/04/04 04:55:30;;;;;;;;;;;;;;;11.21;35.34;98705.38;5049889;28;19947;-83
2023/04/04 04:57:56;;;;;;;;;;;;;;;13.34;29.93;98695.22;5047884;28;19936;-85
2023/04/04 05:00:22;;;;;;;;;;;;;;;15.14;26.37;98700.97;5028955;28;19975;-88
2023/04/04 05:02:48;;;;;;;;;;;;;;;15.77;26.18;98701.66;5053522;28;20011;-87
2023/04/04 05:05:15;;;;;;;;;;;;;;;15.59;27.06;98706.00;5057109;28;19929;-89
2023/04/04 05:07:45;;;;;;;;;;;;;;;13.77;30.12;98704.41;5051486;28;19928;-89
2023/04/04 05:10:11;;;;;;;;;;;;;;;13.46;29.36;98715.31;5051455;28;19975;-89
2023/04/04 05:12:42;;;;;;;;;;;;;;;13.34;31.80;98711.75;5052333;28;19930;-89
2023/04/04 05:15:08;;;;;;;;;;;;;;;12.68;32.17;98711.16;5052903;28;20269;-89
2023/04/04 05:17:34;;;;;;;;;;;;;;;12.67;32.30;98707.59;5061982;28;19923;-89
2023/04/04 05:20:00;;;;;;;;;;;;;;;12.68;31.04;98706.47;5073879;28;19916;-89
2023/04/04 05:22:27;;;;;;;;;;;;;;;13.66;29.96;98713.53;5056269;28;19974;-89
2023/04/04 05:24:53;;;;;;;;;;;;;;;13.97;31.10;98708.16;5052991;28;19969;-89
2023/04/04 05:27:19;;;;;;;;;;;;;;;14.22;28.81;98703.31;5053379;28;19917;-89
2023/04/04 05:29:46;;;;;;;;;;;;;;;14.83;27.72;98706.53;5052935;28;20026;-89
2023/04/04 05:32:12;;;;;;;;;;;;;;;14.72;28.11;98699.94;5053473;28;20527;-89
2023/04/04 05:34:38;;;;;;;;;;;;;;;14.52;28.30;98718.34;5062455;28;20399;-89
2023/04/04 05:37:04;;;;;;;;;;;;;;;12.93;32.08;98716.34;5056318;28;19921;-89
2023/04/04 05:39:30;;;;;;;;;;;;;;;11.86;34.40;98725.94;5053638;28;19921;-89
2023/04/04 05:41:56;;;;;;;;;;;;;;;10.97;36.04;98727.97;5053213;28;19916;-89
2023/04/04 05:44:22;;;;;;;;;;;;;;;10.43;37.03;98723.38;5054944;28;19921;-89
2023/04/04 05:46:48;;;;;;;;;;;;;;;10.41;37.00;98725.63;5053460;28;20471;-89
2023/04/04 05:49:15;;;;;;;;;;;;;;;11.03;37.28;98728.63;5035730;28;19955;-89
2023/04/04 05:51:41;;;;;;;;;;;;;;;13.59;29.87;98719.66;5062675;28;19920;-90
2023/04/04 05:54:07;;;;;;;;;;;;;;;12.78;31.18;98722.56;5071818;28;19924;-90
2023/04/04 05:56:33;;;;;;;;;;;;;;;11.87;34.76;98722.88;5055838;28;19962;-90
2023/04/04 05:58:59;;;;;;;;;;;;;;;11.06;36.40;98738.94;5055580;28;19920;-89
2023/04/04 06:01:26;;;;;;;;;;;;;;;11.10;35.11;98737.16;5050240;28;19916;-89
2023/04/04 06:03:52;;;;;;;;;;;;;;;10.50;37.10;98736.59;5052889;28;20311;-89
2023/04/04 06:06:18;;;;;;;;;;;;;;;10.98;36.61;98740.59;5059485;28;20311;-89
2023/04/04 06:08:44;;;;;;;;;;;;;;;11.49;35.82;98738.66;5062800;28;20380;-90
2023/04/04 06:11:10;;;;;;;;;;;;;;;10.47;38.02;98742.72;5072854;28;19916;-89
2023/04/04 06:13:36;;;;;;;;;;;;;;;10.53;38.88;98738.66;5053229;28;19960;-90
2023/04/04 06:16:02;;;;;;;;;;;;;;;12.42;31.84;98736.25;5053454;28;20319;-90
2023/04/04 06:18:28;;;;;;;;;;;;;;;11.03;36.81;98737.66;5053044;28;19917;-90
2023/04/04 06:20:55;;;;;;;;;;;;;;;10.94;37.91;98747.91;5052739;28;19975;-90
2023/04/04 06:23:21;;;;;;;;;;;;;;;10.94;37.81;98739.66;5053379;28;20381;-90
2023/04/04 06:25:47;;;;;;;;;;;;;;;12.33;35.97;98746.53;5062771;28;19912;-91
2023/04/04 06:28:16;;;;;;;;;;;;;;;13.41;31.91;98731.28;5072343;28;20322;-90
2023/04/04 06:30:43;;;;;;;;;;;;;;;13.63;32.92;98737.09;5073252;28;19916;-90
2023/04/04 06:33:09;;;;;;;;;;;;;;;12.17;34.46;98745.56;5073118;28;20014;-90
2023/04/04 06:35:35;;;;;;;;;;;;;;;11.28;36.11;98757.06;5057570;28;19979;-90
2023/04/04 06:38:03;;;;;;;;;;;;;;;10.86;37.56;98743.25;5052710;28;19917;-90
2023/04/04 06:40:29;;;;;;;;;;;;;;;12.38;35.50;98744.41;5035114;28;19916;-90
2023/04/04 06:42:57;;;;;;;;;;;;;;;14.12;32.57;98731.44;5064291;28;19929;-91
2023/04/04 06:45:23;;;;;;;;;;;;;;;12.28;35.26;98735.75;5073395;28;20040;-90
2023/04/04 06:47:52;;;;;;;;;;;;;;;11.48;35.15;98743.34;5073363;28;19916;-90
2023/04/04 06:50:18;;;;;;;;;;;;;;;11.55;34.99;98740.88;5057864;28;19924;-90
2023/04/04 06:52:44;;;;;;;;;;;;;;;12.85;34.68;98725.53;5055956;28;19916;-91
2023/04/04 06:55:10;;;;;;;;;;;;;;;11.74;37.77;98738.50;5037065;28;19925;-91
2023/04/04 06:57:37;;;;;;;;;;;;;;;11.08;38.42;98729.22;5036732;28;19921;-89
2023/04/04 07:00:04;;;;;;;;;;;;;;;11.42;38.21;98733.72;5060904;28;19917;-91
2023/04/04 07:02:30;;;;;;;;;;;;;;;12.80;35.21;98725.75;5076366;28;20498;-92
2023/04/04 07:04:56;;;;;;;;;;;;;;;11.54;37.84;98732.97;5061502;28;20400;-91
2023/04/04 07:07:22;;;;;;;;;;;;;;;12.66;33.69;98728.03;5056195;28;19923;-91
2023/04/04 07:09:48;;;;;;;;;;;;;;;13.29;31.84;98723.84;5055602;28;20018;-91
2023/04/04 07:12:14;;;;;;;;;;;;;;;12.98;35.49;98721.63;5056251;28;20015;-91
2023/04/04 07:14:40;;;;;;;;;;;;;;;11.82;37.37;98731.31;5055931;28;19963;-90
2023/04/04 07:17:06;;;;;;;;;;;;;;;12.82;36.44;98726.22;5059605;28;20048;-91
2023/04/04 07:19:32;;;;;;;;;;;;;;;12.45;35.63;98730.06;5055899;28;19916;-90
2023/04/04 07:21:58;;;;;;;;;;;;;;;11.80;37.11;98730.88;5055355;28;20323;-90
2023/04/04 07:24:24;;;;;;;;;;;;;;;10.93;37.80;98732.53;5055145;28;20380;-89
2023/04/04 07:26:50;;;;;;;;;;;;;;;11.99;35.79;98727.63;5055975;28;19919;-89
2023/04/04 07:29:16;;;;;;;;;;;;;;;10.98;37.95;98729.59;5056038;28;20269;-89
2023/04/04 07:31:42;;;;;;;;;;;;;;;11.96;36.53;98725.53;5055770;28;20003;-90
2023/04/04 07:34:08;;;;;;;;;;;;;;;11.17;39.26;98729.19;5050974;28;19916;-89
2023/04/04 07:36:35;;;;;;;;;;;;;;;12.13;36.51;98728.13;5058054;28;20450;-90
2023/04/04 07:39:01;;;;;;;;;;;;;;;11.83;36.33;98726.63;5057933;28;20411;-89
2023/04/04 07:41:27;;;;;;;;;;;;;;;11.32;38.83;98727.81;5055244;28;19920;-89
2023/04/04 07:43:53;;;;;;;;;;;;;;;11.42;38.27;98730.97;5066701;28;20006;-89
2023/04/04 07:46:19;;;;;;;;;;;;;;;11.75;36.49;98729.13;5075661;28;19952;-89
2023/04/04 07:48:45;;;;;;;;;;;;;;;11.61;38.50;98736.00;5075403;28;19921;-89
2023/04/04 07:51:11;;;;;;;;;;;;;;;12.44;37.14;98731.19;5067011;28;20381;-89
2023/04/04 07:53:37;;;;;;;;;;;;;;;12.30;37.31;98722.44;5037108;28;19971;-89
2023/04/04 07:56:05;;;;;;;;;;;;;;;12.75;32.56;98725.97;5035675;28;19928;-89
2023/04/04 07:58:32;;;;;;;;;;;;;;;13.46;35.35;98720.84;5035436;28;19917;-89
2023/04/04 08:00:59;;;;;;;;;;;;;;;13.07;36.13;98725.09;5035279;28;19921;-89
2023/04/04 08:03:25;;;;;;;;;;;;;;;12.77;31.18;98729.19;5034193;28;19921;-88
2023/04/04 08:05:51;;;;;;;;;;;;;;;12.76;36.00;98732.31;5043129;28;19944;-88
2023/04/04 08:08:17;;;;;;;;;;;;;;;12.99;31.76;98722.44;5068805;28;20392;-89
2023/04/04 08:10:44;;;;;;;;;;;;;;;14.74;30.10;98716.97;5074954;28;19916;-89
2023/04/04 08:13:10;;;;;;;;;;;;;;;15.75;27.73;98720.59;5075191;28;19928;-89
2023/04/04 08:15:37;;;;;;;;;;;;;;;15.98;27.48;98712.34;5059500;28;20291;-89
2023/04/04 08:18:03;;;;;;;;;;;;;;;17.20;28.35;98702.72;5054993;28;19917;-89
2023/04/04 08:20:29;;;;;;;;;;;;;;;14.51;30.96;98712.06;5054544;28;19920;-89
2023/04/04 08:22:56;;;;;;;;;;;;;;;12.84;35.15;98714.84;5054512;28;20495;-89
2023/04/04 08:25:22;;;;;;;;;;;;;;;11.97;39.15;98716.16;5069481;28;19924;-89
2023/04/04 08:27:48;;;;;;;;;;;;;;;12.87;35.41;98717.75;5074788;28;19916;-88
2023/04/04 08:30:14;;;;;;;;;;;;;;;14.49;34.30;98711.56;5074500;28;20364;-89
2023/04/04 08:32:41;;;;;;;;;;;;;;;14.30;29.22;98708.72;5056696;28;19920;-89
2023/04/04 08:35:07;;;;;;;;;;;;;;;17.99;24.86;98707.44;5069868;28;19917;-89
2023/04/04 08:37:34;;;;;;;;;;;;;;;19.55;22.79;98703.03;5048550;28;19921;-89
2023/04/04 08:40:01;;;;;;;;;;;;;;;19.43;23.48;98694.97;5034328;28;19913;-90
2023/04/04 08:42:29;;;;;;;;;;;;;;;19.13;25.84;98694.34;5071455;28;19925;-89
2023/04/04 08:44:56;;;;;;;;;;;;;;;17.47;31.43;98700.75;5074793;28;19935;-89
2023/04/04 08:47:23;;;;;;;;;;;;;;;16.49;29.49;98689.63;5074382;28;19912;-88
2023/04/04 08:49:50;;;;;;;;;;;;;;;13.87;30.28;98703.13;5073987;28;20375;-89
2023/04/04 08:52:20;;;;;;;;;;;;;;;13.18;35.65;98699.84;5017475;28;19925;-88
2023/04/04 08:54:46;;;;;;;;;;;;;;;13.53;34.61;98687.13;5034384;28;20444;-88
2023/04/04 08:57:12;;;;;;;;;;;;;;;13.84;33.51;98671.50;5034459;28;20020;-88
2023/04/04 08:59:38;;;;;;;;;;;;;;;14.36;29.89;98685.19;5068438;28;19970;-88
2023/04/04 09:02:08;;;;;;;;;;;;;;;14.54;30.98;98677.34;5074061;28;19916;-88
2023/04/04 09:04:34;;;;;;;;;;;;;;;14.94;33.35;98677.16;5073916;28;19917;-88
2023/04/04 09:07:02;;;;;;;;;;;;;;;15.15;29.69;98680.44;5053681;28;19975;-88
2023/04/04 09:09:30;;;;;;;;;;;;;;;16.26;28.15;98668.59;5053743;28;19924;-88
2023/04/04 09:11:57;;;;;;;;;;;;;;;17.48;26.29;98671.03;5053696;28;20450;-87
2023/04/04 09:14:24;;;;;;;;;;;;;;;16.58;28.65;98672.78;5053449;28;20369;-87
2023/04/04 09:16:50;;;;;;;;;;;;;;;16.65;25.22;98678.44;5072785;28;19951;-88
2023/04/04 09:19:16;;;;;;;;;;;;;;;16.48;29.68;98674.16;5073701;28;19923;-88
2023/04/04 09:21:46;;;;;;;;;;;;;;;18.13;23.51;98675.06;5053846;28;19921;-88
2023/04/04 09:24:13;;;;;;;;;;;;;;;15.24;29.78;98692.91;5053685;28;19917;-87
2023/04/04 09:26:48;;;;;;;;;;;;;;;14.92;31.99;98688.59;5053623;28;19940;-87
2023/04/04 09:29:16;;;;;;;;;;;;;;;15.48;29.89;98683.59;5053370;28;19961;-87
2023/04/04 09:31:45;;;;;;;;;;;;;;;14.54;30.27;98678.16;5054727;28;19916;-88
2023/04/04 09:34:13;;;;;;;;;;;;;;;13.96;31.65;98683.63;5054571;28;19925;-87
2023/04/04 09:36:40;;;;;;;;;;;;;;;14.64;31.97;98670.50;5053746;28;19920;-87
2023/04/04 09:39:07;;;;;;;;;;;;;;;13.66;32.84;98683.19;5053515;28;19920;-88
2023/04/04 09:41:33;;;;;;;;;;;;;;;14.33;30.45;98685.09;5064326;28;19917;-88
2023/04/04 09:43:59;;;;;;;;;;;;;;;13.37;31.04;98694.53;5073358;28;19928;-87
2023/04/04 09:46:26;;;;;;;;;;;;;;;13.20;29.00;98690.06;5073731;28;19920;-88
2023/04/04 09:48:54;;;;;;;;;;;;;;;12.57;35.24;98690.72;5071526;28;19920;-88
2023/04/04 09:51:20;;;;;;;;;;;;;;;14.09;26.92;98694.28;5052706;28;19967;-87
2023/04/04 09:53:47;;;;;;;;;;;;;;;13.44;32.18;98695.53;5053368;28;19923;-87
2023/04/04 09:56:13;;;;;;;;;;;;;;;13.59;30.73;98685.72;5053531;28;19917;-87
2023/04/04 09:58:39;;;;;;;;;;;;;;;16.78;25.04;98673.53;5053284;28;20458;-87
2023/04/04 10:01:11;;;;;;;;;;;;;;;17.71;23.59;98678.09;5053252;28;20308;-88
2023/04/04 10:03:38;;;;;;;;;;;;;;;15.81;29.97;98683.94;5052818;28;19917;-87
2023/04/04 10:06:05;;;;;;;;;;;;;;;14.21;31.78;98677.66;5053575;28;19986;-88
2023/04/04 10:08:31;;;;;;;;;;;;;;;13.66;32.98;98686.75;5053235;28;19921;-88
2023/04/04 10:10:58;;;;;;;;;;;;;;;13.96;33.54;98681.69;5053154;28;19939;-88
2023/04/04 10:13:28;;;;;;;;;;;;;;;13.53;30.38;98681.63;5053105;28;20023;-87
2023/04/04 10:15:56;;;;;;;;;;;;;;;14.59;27.62;98671.56;5053267;28;20376;-88
2023/04/04 10:18:22;;;;;;;;;;;;;;;16.67;24.14;98662.22;5035537;28;19928;-88
2023/04/04 10:20:48;;;;;;;;;;;;;;;17.64;29.06;98658.56;5052753;28;19929;-87
2023/04/04 10:23:15;;;;;;;;;;;;;;;17.52;24.40;98658.03;5058687;28;20291;-88
2023/04/04 10:25:41;;;;;;;;;;;;;;;17.54;25.17;98658.44;5073227;28;20011;-88
2023/04/04 10:28:07;;;;;;;;;;;;;;;15.66;30.56;98667.41;5068494;28;19927;-87
2023/04/04 10:30:40;;;;;;;;;;;;;;;13.92;33.26;98675.28;5056794;28;19917;-86
2023/04/04 10:33:11;;;;;;;;;;;;;;;13.70;30.36;98676.63;5055513;28;19923;-86
2023/04/04 10:35:39;;;;;;;;;;;;;;;13.24;31.79;98670.88;5055471;28;20379;-87
2023/04/04 10:38:07;;;;;;;;;;;;;;;13.13;35.44;98665.03;5055151;28;19924;-87
2023/04/04 10:40:34;;;;;;;;;;;;;;;16.09;26.80;98660.75;5061159;28;19917;-87
2023/04/04 10:43:04;;;;;;;;;;;;;;;16.39;31.78;98658.94;5056620;28;20011;-87
2023/04/04 10:45:31;;;;;;;;;;;;;;;16.79;25.62;98650.16;5056622;28;20483;-87
2023/04/04 10:47:57;;;;;;;;;;;;;;;13.92;32.11;98660.66;5048218;28;20293;-86
2023/04/04 10:50:23;;;;;;;;;;;;;;;12.69;35.81;98666.75;5036431;28;20281;-86
2023/04/04 10:52:50;;;;;;;;;;;;;;;12.91;36.25;98668.25;5036798;28;20274;-86
2023/04/04 10:55:16;;;;;;;;;;;;;;;14.07;34.92;98668.19;5036467;28;19917;-86
2023/04/04 10:57:44;;;;;;;;;;;;;;;16.60;24.62;98667.66;5055371;28;20073;-86
2023/04/04 11:00:11;;;;;;;;;;;;;;;16.35;28.99;98666.38;5076340;28;19927;-86
2023/04/04 11:02:57;;;;;;;;;;;;;;;15.46;32.13;98674.88;5062464;28;19939;-86
2023/04/04 11:05:23;;;;;;;;;;;;;;;14.92;30.47;98671.19;5034657;28;19918;-85
2023/04/04 11:07:57;;;;;;;;;;;;;;;16.13;26.36;98665.19;5041304;28;19916;-85
2023/04/04 11:10:25;;;;;;;;;;;;;;;16.05;33.43;98662.66;5056206;28;19916;-85
2023/04/04 11:12:54;;;;;;;;;;;;;;;16.11;28.12;98663.94;5038386;28;20396;-85
2023/04/04 11:15:20;;;;;;;;;;;;;;;14.88;32.64;98659.25;5070747;28;20521;-85
2023/04/04 11:17:52;;;;;;;;;;;;;;;15.20;34.73;98664.38;5064084;28;19921;-85
2023/04/04 11:20:20;;;;;;;;;;;;;;;15.20;33.54;98661.63;5056014;28;19924;-85
2023/04/04 11:22:48;;;;;;;;;;;;;;;16.13;30.31;98653.28;5055709;28;19921;-86
2023/04/04 11:25:23;;;;;;;;;;;;;;;16.83;25.51;98646.25;5055707;28;20365;-85
2023/04/04 11:27:53;;;;;;;;;;;;;;;16.29;25.80;98651.25;5055898;28;19932;-86
2023/04/04 11:30:19;;;;;;;;;;;;;;;15.66;30.60;98662.66;5055448;28;19924;-86
2023/04/04 11:32:49;;;;;;;;;;;;;;;16.02;27.52;98655.88;5059995;28;20457;-86
2023/04/04 11:35:15;;;;;;;;;;;;;;;16.78;24.36;98648.56;5055864;28;19913;-86
2023/04/04 11:37:51;;;;;;;;;;;;;;;15.78;27.86;98640.38;5072236;28;20012;-86
2023/04/04 11:40:17;;;;;;;;;;;;;;;14.32;31.23;98653.94;5072965;28;19935;-87
2023/04/04 11:42:43;;;;;;;;;;;;;;;13.68;31.38;98648.56;5061473;28;20006;-87
2023/04/04 11:45:16;;;;;;;;;;;;;;;13.93;33.88;98654.00;5040253;28;19920;-87
2023/04/04 11:47:46;;;;;;;;;;;;;;;14.06;28.86;98650.81;5051733;28;19953;-86
2023/04/04 11:50:13;;;;;;;;;;;;;;;14.07;29.04;98649.66;5060181;28;19975;-87
2023/04/04 11:52:41;;;;;;;;;;;;;;;15.21;32.48;98652.16;5017715;28;20331;-86
2023/04/04 11:55:17;;;;;;;;;;;;;;;16.31;25.66;98644.13;5035520;28;20363;-87
2023/04/04 11:57:45;;;;;;;;;;;;;;;15.59;31.13;98645.88;5038484;28;19924;-87
2023/04/04 12:00:14;;;;;;;;;;;;;;;15.10;30.86;98644.75;5053040;28;19952;-86
2023/04/04 12:02:41;;;;;;;;;;;;;;;14.71;27.76;98654.09;5055158;28;19916;-87
2023/04/04 12:05:07;;;;;;;;;;;;;;;14.85;33.51;98643.38;5055086;28;20317;-87
2023/04/04 12:07:34;;;;;;;;;;;;;;;15.08;28.01;98647.09;5052230;28;19923;-86
2023/04/04 12:10:00;;;;;;;;;;;;;;;15.80;26.37;98646.34;5035299;28;20697;-86
2023/04/04 12:12:29;;;;;;;;;;;;;;;16.69;28.71;98631.34;5055100;28;19925;-86
2023/04/04 12:14:55;;;;;;;;;;;;;;;17.60;28.79;98629.16;5052721;28;19943;-87
2023/04/04 12:17:21;;;;;;;;;;;;;;;16.92;25.91;98637.69;5034544;28;19956;-86
2023/04/04 12:19:47;;;;;;;;;;;;;;;17.05;30.81;98631.56;5053530;28;19920;-87
2023/04/04 12:22:13;;;;;;;;;;;;;;;15.40;27.30;98628.47;5060345;28;19924;-87
2023/04/04 12:24:40;;;;;;;;;;;;;;;15.71;25.92;98640.22;5074600;28;20462;-86
2023/04/04 12:27:06;;;;;;;;;;;;;;;15.26;27.00;98647.50;5055118;28;19960;-85
2023/04/04 12:29:35;;;;;;;;;;;;;;;14.25;29.95;98639.91;5054507;28;19978;-87
2023/04/04 12:32:01;;;;;;;;;;;;;;;13.79;33.62;98624.06;5053473;28;19921;-87
2023/04/04 12:34:29;;;;;;;;;;;;;;;16.29;26.85;98612.47;5054845;28;19920;-87
2023/04/04 12:36:56;;;;;;;;;;;;;;;15.06;30.26;98617.03;5059578;28;20291;-87
2023/04/04 12:39:25;;;;;;;;;;;;;;;13.68;28.31;98626.50;5060117;28;20007;-86
2023/04/04 12:41:58;;;;;;;;;;;;;;;13.67;30.60;98626.88;5053946;28;20011;-86
2023/04/04 12:44:35;;;;;;;;;;;;;;;13.65;35.74;98618.91;5034707;28;20253;-87
2023/04/04 12:47:05;;;;;;;;;;;;;;;17.14;26.87;98612.69;5049997;28;19927;-87